Ogema, Canada
Current Conditions -  °F | °C
As of 5:00 PM on Monday 20 Oct 2014 (Local Time) from CYQR Reporting Station
Clear Clear  
Wind Chill: 70°   Ceiling: Unl
Heat Index: 70°   Visibility: 15mi
Dew Point: 45°   Wind: 12mph
Humidity: 40%   Direction: 170°S
Pressure: 29.76"   Gusts: NA
Location:  49.57°N, 104.92°W
Report Text: CYQR 202300Z 17010KT 15SM SKC 21/07 A2976 RMK SLP088 DENSITY ALT 3200FT
Loading
Personal Weather Stations






























Interactive Weather Map
Tropical Storm Tracking
New forecast layout! Learn more

10-Day Weather Forecast

Advertisements
Track Severe Weather on mobile